createdAt,value
2022-10-31T11:03:46.356Z,54.31
2022-10-31T11:06:22.317Z,53.59
2022-10-31T11:08:49.811Z,53.39
2022-10-31T11:11:30.000Z,53.50
2022-10-31T11:14:03.306Z,53.46
2022-10-31T11:16:46.314Z,53.54
2022-10-31T11:19:12.733Z,52.56
2022-10-31T11:21:39.251Z,52.15
2022-10-31T11:24:11.821Z,52.08
2022-10-31T11:26:40.018Z,52.18
2022-10-31T11:29:31.778Z,52.13
2022-10-31T11:32:01.261Z,52.10
2022-10-31T11:34:35.482Z,52.78
2022-10-31T11:37:11.053Z,53.68
2022-10-31T11:39:42.847Z,54.07
2022-10-31T11:42:09.498Z,54.58
2022-10-31T11:44:36.120Z,54.41
2022-10-31T15:52:33.447Z,50.20
2022-10-31T15:55:04.682Z,51.98
2022-10-31T15:57:31.638Z,54.22
2022-10-31T15:59:58.582Z,56.67
2022-10-31T16:02:28.373Z,58.34
2022-10-31T16:05:02.272Z,59.87
2022-10-31T16:07:32.159Z,61.53
2022-10-31T16:10:01.182Z,62.79
2022-10-31T16:12:36.463Z,64.28
2022-10-31T16:15:05.706Z,65.06
2022-10-31T16:17:32.730Z,66.33
2022-10-31T16:20:01.945Z,67.12
2022-10-31T16:22:31.616Z,67.96
2022-10-31T16:25:06.720Z,69.00
2022-10-31T16:27:36.405Z,69.53
2022-10-31T16:30:25.103Z,70.33
2022-10-31T16:32:57.133Z,71.25
2022-10-31T16:35:38.835Z,71.71
2022-10-31T16:38:06.385Z,72.25
2022-10-31T16:40:33.496Z,72.62
2022-10-31T16:43:01.279Z,73.08
2022-10-31T16:45:31.046Z,73.39
2022-10-31T16:48:12.319Z,74.03
2022-10-31T16:50:39.373Z,74.34
2022-10-31T16:53:13.833Z,74.44
2022-10-31T16:55:47.650Z,74.83
2022-10-31T16:58:33.784Z,75.00
2022-10-31T17:01:01.880Z,75.16
2022-10-31T17:03:28.604Z,75.69
2022-10-31T17:05:55.096Z,76.09
2022-10-31T17:08:21.712Z,76.19
2022-10-31T17:10:51.607Z,76.35
2022-10-31T17:13:21.128Z,76.34
2022-10-31T17:15:54.045Z,76.63
2022-10-31T17:18:26.097Z,76.71
2022-10-31T17:20:59.301Z,77.01
2022-10-31T17:23:26.088Z,77.19
2022-10-31T17:25:52.566Z,77.20
2022-10-31T17:28:19.065Z,77.10
2022-10-31T17:30:45.605Z,77.50
2022-10-31T17:33:13.875Z,77.59
2022-10-31T17:35:40.618Z,77.75
2022-10-31T17:38:07.059Z,77.68
2022-10-31T17:40:33.671Z,77.78
2022-10-31T17:43:00.539Z,77.96
2022-10-31T17:45:27.345Z,78.12
2022-10-31T17:47:54.334Z,78.15
2022-10-31T17:50:25.790Z,78.38
2022-10-31T17:52:52.902Z,78.43
2022-10-31T17:55:20.095Z,78.53
2022-10-31T17:57:46.533Z,78.44
2022-10-31T18:00:18.653Z,78.53
2022-10-31T18:02:45.340Z,78.85
2022-10-31T18:05:12.086Z,78.87
2022-10-31T18:07:38.732Z,79.10
2022-10-31T18:10:06.382Z,79.29
2022-10-31T18:12:36.163Z,79.26
2022-10-31T18:15:02.760Z,79.23
2022-10-31T18:17:29.284Z,79.22
2022-10-31T18:19:55.871Z,79.27
2022-10-31T18:22:22.406Z,79.41
2022-10-31T18:24:48.888Z,79.49
2022-10-31T18:27:15.431Z,79.36
2022-10-31T18:29:41.877Z,79.43
2022-10-31T18:32:11.141Z,79.41
2022-10-31T18:34:37.581Z,79.47
2022-10-31T18:37:04.180Z,79.46
2022-10-31T18:39:30.684Z,79.73
2022-10-31T18:41:57.248Z,80.06
2022-10-31T18:44:23.770Z,79.94
2022-10-31T18:46:50.240Z,79.90
2022-10-31T18:49:16.765Z,80.06
2022-10-31T18:51:43.201Z,79.99
2022-10-31T18:54:09.666Z,80.00
2022-10-31T18:56:36.133Z,80.08
2022-10-31T18:59:02.771Z,80.08
2022-10-31T19:01:29.554Z,80.20
2022-10-31T19:03:57.930Z,80.45
2022-10-31T19:06:26.049Z,80.38
2022-10-31T19:09:00.870Z,80.42
2022-10-31T19:11:27.861Z,80.50
2022-10-31T19:13:54.540Z,80.58
2022-10-31T19:16:21.044Z,80.58
2022-10-31T19:18:47.496Z,80.66
2022-10-31T19:21:18.096Z,80.72
2022-10-31T19:23:45.627Z,80.76
2022-10-31T19:26:12.767Z,80.74
2022-10-31T19:28:40.922Z,80.77
2022-10-31T19:31:08.368Z,80.80
2022-10-31T19:33:36.383Z,80.92
2022-10-31T19:36:07.357Z,81.08
2022-10-31T19:38:35.031Z,81.14
2022-10-31T19:41:04.631Z,81.20
2022-10-31T19:43:31.094Z,81.15
2022-10-31T19:45:59.329Z,81.31
2022-10-31T19:48:26.575Z,81.21
2022-10-31T19:50:58.537Z,81.34
2022-10-31T19:53:25.195Z,81.10
2022-10-31T19:55:51.634Z,81.44
2022-10-31T19:58:18.354Z,81.35
2022-10-31T20:00:45.118Z,81.47
2022-10-31T20:03:11.676Z,81.61
2022-10-31T20:05:41.875Z,81.51
2022-10-31T20:08:20.218Z,81.64
2022-10-31T20:10:57.787Z,81.63
2022-10-31T20:13:24.956Z,81.82
2022-10-31T20:15:52.169Z,81.90
2022-10-31T20:18:19.105Z,81.85
2022-10-31T20:20:46.051Z,81.77
2022-10-31T20:23:12.514Z,81.92
2022-10-31T20:25:47.253Z,81.71
2022-10-31T20:28:13.741Z,81.86
2022-10-31T20:30:40.203Z,81.87
2022-10-31T20:33:07.125Z,81.78
2022-10-31T20:35:37.588Z,82.11
2022-10-31T20:38:04.687Z,82.03
2022-10-31T20:40:31.986Z,82.07
2022-10-31T20:42:58.812Z,82.00
2022-10-31T20:45:25.269Z,82.14
2022-10-31T20:47:51.721Z,82.08
2022-10-31T20:50:18.192Z,82.08
2022-10-31T20:52:44.686Z,82.14
2022-10-31T20:55:11.200Z,82.19
2022-10-31T20:57:37.679Z,82.26
2022-10-31T21:00:06.157Z,81.94
2022-10-31T21:02:32.963Z,82.07
2022-10-31T21:04:59.461Z,82.07
2022-10-31T21:07:25.899Z,82.17
2022-10-31T21:09:52.375Z,82.03
2022-10-31T21:12:18.853Z,82.01
2022-10-31T21:14:45.291Z,82.15
2022-10-31T21:17:11.754Z,82.08
2022-10-31T21:19:39.488Z,82.03
2022-10-31T21:22:05.953Z,82.09
2022-10-31T21:24:32.459Z,82.08
2022-10-31T21:26:58.925Z,82.18
2022-10-31T21:29:25.374Z,82.31
2022-10-31T21:31:52.208Z,82.38
2022-10-31T21:34:18.698Z,82.42
2022-10-31T21:36:45.276Z,82.29
2022-10-31T21:39:11.842Z,82.37
2022-10-31T21:41:38.293Z,82.50
2022-10-31T21:44:05.439Z,82.46
2022-10-31T21:46:33.621Z,82.38
2022-10-31T21:49:02.405Z,82.50
2022-10-31T21:51:31.410Z,82.45
2022-10-31T21:53:58.592Z,82.38
2022-10-31T21:56:25.958Z,82.53
2022-10-31T21:58:53.541Z,82.26
2022-10-31T22:01:21.286Z,82.33
2022-10-31T22:03:48.620Z,82.57
2022-10-31T22:06:15.795Z,82.43
2022-10-31T22:08:42.769Z,82.55
2022-10-31T22:11:14.866Z,82.67
2022-10-31T22:13:43.268Z,82.76
2022-10-31T22:16:15.577Z,82.89
2022-10-31T22:18:42.933Z,82.95
2022-10-31T22:21:12.432Z,82.91
2022-10-31T22:23:39.830Z,82.91
2022-10-31T22:26:08.721Z,82.92
2022-10-31T22:28:35.925Z,83.07
2022-10-31T22:31:06.196Z,83.09
2022-10-31T22:33:33.347Z,82.90
2022-10-31T22:36:11.652Z,82.96
2022-10-31T22:38:39.694Z,82.91
2022-10-31T22:41:18.530Z,83.06
2022-10-31T22:43:45.897Z,82.98
2022-10-31T22:46:24.122Z,83.09
2022-10-31T22:48:53.431Z,83.06
2022-10-31T22:51:25.967Z,83.01
2022-10-31T22:53:53.189Z,83.22
2022-10-31T22:56:21.736Z,83.31
2022-10-31T22:58:48.532Z,83.30
2022-10-31T23:01:20.378Z,83.28
2022-10-31T23:03:47.778Z,83.25
2022-10-31T23:06:20.238Z,83.34
2022-10-31T23:08:47.242Z,83.31
2022-10-31T23:11:22.431Z,83.24
2022-10-31T23:13:51.012Z,83.37
2022-10-31T23:16:17.461Z,83.52
2022-10-31T23:18:50.020Z,83.55
2022-10-31T23:21:17.430Z,83.39
2022-10-31T23:23:43.863Z,83.62
2022-10-31T23:26:10.300Z,83.73
2022-10-31T23:28:36.762Z,83.76
2022-10-31T23:31:03.241Z,83.88
2022-10-31T23:33:31.555Z,83.80
2022-10-31T23:35:58.140Z,83.59
2022-10-31T23:38:24.611Z,83.65
2022-10-31T23:40:51.050Z,83.72
2022-10-31T23:43:19.556Z,83.59
2022-10-31T23:45:46.015Z,83.83
2022-10-31T23:48:12.477Z,83.75
2022-10-31T23:50:38.971Z,83.69
2022-10-31T23:53:05.460Z,83.62
2022-10-31T23:55:31.930Z,83.66
2022-10-31T23:57:58.505Z,83.80
